Terminal Aerodrome Forecast
Issued by NWS

Home | Current Version | Previous Version | Text Only | Print | Product List | Glossary On
Versions: 1 2 3 4 5 6 7 8 9 10 11 12 13 14 15 16 17
000
FTUS46 KMTR 200500
TAFSNS
TAF
KSNS 200540Z 2006/2106 12010KT P6SM -RA BKN035 OVC050
     FM201600 12008KT P6SM OVC025
     FM201800 13008KT P6SM FEW025 BKN040 OVC100
     FM202200 27005KT P6SM FEW025 BKN040 OVC100
     FM210200 29003KT P6SM OVC015=

USA.gov is the U.S. government's official web portal to all federal, state and local government web resources and services.